createdAt,value
2024-02-27T00:02:24.898Z,8.33
2024-02-27T00:04:51.429Z,8.33
2024-02-27T00:07:18.230Z,8.25
2024-02-27T00:09:45.604Z,8.28
2024-02-27T00:12:12.466Z,8.34
2024-02-27T00:14:40.535Z,8.27
2024-02-27T00:17:07.179Z,8.37
2024-02-27T00:19:34.073Z,8.50
2024-02-27T00:22:00.825Z,8.37
2024-02-27T00:24:27.467Z,8.46
2024-02-27T00:26:54.160Z,8.37
2024-02-27T00:29:21.605Z,8.43
2024-02-27T00:31:49.541Z,8.45
2024-02-27T00:34:17.123Z,8.32
2024-02-27T00:36:43.959Z,8.22
2024-02-27T00:39:10.667Z,8.28
2024-02-27T00:41:40.296Z,8.15
2024-02-27T00:44:08.457Z,8.38
2024-02-27T00:46:35.125Z,8.32
2024-02-27T00:49:03.092Z,8.12
2024-02-27T00:51:29.743Z,8.25
2024-02-27T00:53:56.473Z,8.30
2024-02-27T00:56:23.169Z,8.12
2024-02-27T00:58:49.808Z,8.27
2024-02-27T01:01:16.566Z,8.25
2024-02-27T01:03:43.221Z,8.15
2024-02-27T01:06:11.456Z,8.18
2024-02-27T01:08:38.286Z,8.11
2024-02-27T01:11:05.064Z,8.17
2024-02-27T01:13:31.695Z,8.18
2024-02-27T01:15:58.327Z,8.18
2024-02-27T01:18:24.983Z,8.22
2024-02-27T01:20:51.688Z,8.13
2024-02-27T01:23:20.699Z,8.23
2024-02-27T01:25:47.633Z,8.16
2024-02-27T01:28:14.370Z,8.12
2024-02-27T01:30:41.021Z,8.13
2024-02-27T01:33:07.781Z,8.24
2024-02-27T01:35:34.567Z,8.21
2024-02-27T01:38:01.162Z,8.12
2024-02-27T01:40:29.060Z,7.91
2024-02-27T01:42:55.656Z,8.01
2024-02-27T01:45:23.390Z,8.09
2024-02-27T01:47:50.263Z,7.96
2024-02-27T01:50:18.491Z,8.02
2024-02-27T01:52:46.225Z,8.05
2024-02-27T01:55:13.986Z,7.92
2024-02-27T01:57:42.440Z,8.07
2024-02-27T02:00:15.618Z,7.73
2024-02-27T02:02:45.491Z,7.97
2024-02-27T02:05:12.744Z,8.03
2024-02-27T02:07:41.180Z,8.00
2024-02-27T02:10:11.455Z,8.06
2024-02-27T02:12:38.282Z,8.07
2024-02-27T02:15:07.840Z,8.14
2024-02-27T02:17:35.493Z,8.12
2024-02-27T02:20:06.205Z,7.93
2024-02-27T02:22:34.984Z,7.97
2024-02-27T02:25:02.295Z,7.85
2024-02-27T02:27:30.139Z,8.03
2024-02-27T02:29:57.430Z,8.08
2024-02-27T02:32:24.104Z,8.08
2024-02-27T02:34:50.735Z,7.87
2024-02-27T02:37:17.311Z,7.99
2024-02-27T02:39:45.300Z,7.97
2024-02-27T02:42:12.005Z,7.94
2024-02-27T02:44:38.653Z,7.99
2024-02-27T02:47:05.301Z,7.90
2024-02-27T02:49:32.260Z,7.88
2024-02-27T02:51:59.175Z,7.87
2024-02-27T02:54:25.833Z,7.90
2024-02-27T02:56:53.763Z,7.87
2024-02-27T02:59:22.341Z,7.96
2024-02-27T03:01:48.901Z,8.10
2024-02-27T03:04:15.456Z,8.09
2024-02-27T03:06:42.195Z,7.93
2024-02-27T03:09:09.535Z,7.84
2024-02-27T03:11:36.271Z,7.87
2024-02-27T03:14:04.471Z,7.97
2024-02-27T03:16:31.086Z,7.83
2024-02-27T03:18:57.807Z,7.88
2024-02-27T03:21:24.567Z,7.93
2024-02-27T03:23:51.142Z,7.71
2024-02-27T03:26:17.947Z,7.83
2024-02-27T03:28:44.529Z,7.79
2024-02-27T03:31:12.441Z,7.70
2024-02-27T03:33:39.069Z,7.75
2024-02-27T03:36:06.576Z,7.90
2024-02-27T03:38:33.333Z,8.01
2024-02-27T03:40:59.986Z,7.95
2024-02-27T03:43:26.555Z,7.82
2024-02-27T03:45:53.225Z,7.83
2024-02-27T03:48:21.489Z,7.87
2024-02-27T03:50:48.178Z,7.74
2024-02-27T03:53:14.804Z,7.77
2024-02-27T03:55:41.517Z,7.90
2024-02-27T03:58:08.162Z,7.78
2024-02-27T04:00:34.920Z,7.81
2024-02-27T04:03:01.644Z,7.74
2024-02-27T04:05:29.776Z,7.82
2024-02-27T04:07:56.338Z,7.82
2024-02-27T04:10:22.996Z,7.76
2024-02-27T04:12:49.631Z,7.77
2024-02-27T04:15:16.369Z,7.82
2024-02-27T04:17:42.982Z,7.68
2024-02-27T04:20:10.541Z,7.61
2024-02-27T04:22:38.555Z,7.66
2024-02-27T04:25:06.083Z,7.56
2024-02-27T04:27:32.605Z,7.57
2024-02-27T04:29:59.495Z,7.45
2024-02-27T04:32:26.117Z,7.49
2024-02-27T04:34:52.741Z,7.37
2024-02-27T04:37:19.354Z,7.35
2024-02-27T04:39:47.435Z,7.32
2024-02-27T04:42:14.192Z,7.31
2024-02-27T04:44:40.783Z,7.34
2024-02-27T04:47:07.391Z,7.35
2024-02-27T04:49:34.382Z,7.45
2024-02-27T04:52:01.040Z,7.38
2024-02-27T04:54:27.744Z,7.38
2024-02-27T04:56:55.787Z,7.48
2024-02-27T04:59:22.478Z,7.48
2024-02-27T05:01:51.672Z,7.40
2024-02-27T05:04:19.942Z,7.48
2024-02-27T05:06:46.723Z,7.37
2024-02-27T05:09:13.623Z,7.37
2024-02-27T05:11:40.308Z,7.30
2024-02-27T05:14:08.357Z,7.28
2024-02-27T05:16:34.951Z,7.34
2024-02-27T05:19:01.680Z,7.29
2024-02-27T05:21:29.365Z,7.30
2024-02-27T05:23:56.157Z,7.40
2024-02-27T05:26:22.708Z,7.34
2024-02-27T05:28:49.561Z,7.25
2024-02-27T05:31:25.366Z,7.38
2024-02-27T05:33:52.268Z,7.30
2024-02-27T05:36:19.868Z,7.31
2024-02-27T05:38:46.354Z,7.38
2024-02-27T05:41:13.343Z,7.35
2024-02-27T05:43:40.175Z,7.42
2024-02-27T05:46:07.251Z,7.47
2024-02-27T05:48:35.624Z,7.49
2024-02-27T05:51:02.225Z,7.33
2024-02-27T05:53:31.215Z,7.49
2024-02-27T05:55:58.134Z,7.48
2024-02-27T05:58:25.131Z,7.45
2024-02-27T06:00:52.411Z,7.44
2024-02-27T06:03:19.148Z,7.48
2024-02-27T06:05:47.310Z,7.26
2024-02-27T06:08:16.689Z,7.27
2024-02-27T06:10:43.310Z,7.45
2024-02-27T06:13:09.938Z,7.44
2024-02-27T06:15:36.612Z,7.35
2024-02-27T06:18:04.232Z,7.46
2024-02-27T06:20:49.453Z,7.48
2024-02-27T06:23:18.103Z,7.41
2024-02-27T06:25:44.773Z,7.31
2024-02-27T06:28:11.357Z,7.27
2024-02-27T06:30:38.034Z,7.38
2024-02-27T06:33:05.232Z,7.34
2024-02-27T06:35:31.882Z,7.51
2024-02-27T06:37:58.491Z,7.50
2024-02-27T06:40:26.613Z,7.33
2024-02-27T06:42:53.162Z,6.82
2024-02-27T06:45:20.440Z,7.31
2024-02-27T06:47:47.592Z,7.16
2024-02-27T06:50:14.400Z,7.22
2024-02-27T06:52:41.333Z,7.28
2024-02-27T06:55:07.896Z,7.25
2024-02-27T06:57:35.921Z,7.18
2024-02-27T07:00:02.920Z,7.26
2024-02-27T07:02:29.571Z,7.30
2024-02-27T07:04:56.131Z,7.34
2024-02-27T07:07:22.807Z,7.31
2024-02-27T07:09:49.481Z,7.12
2024-02-27T07:12:16.095Z,7.20
2024-02-27T07:14:44.108Z,7.35
2024-02-27T07:17:10.790Z,7.36
2024-02-27T07:19:37.712Z,7.26
2024-02-27T07:22:05.001Z,7.24
2024-02-27T07:24:31.599Z,7.24
2024-02-27T07:26:58.279Z,7.09
2024-02-27T07:29:24.826Z,6.90
2024-02-27T07:31:53.480Z,7.08
2024-02-27T07:34:22.969Z,7.05
2024-02-27T07:36:50.238Z,7.13
2024-02-27T07:39:16.899Z,7.27
2024-02-27T07:41:44.517Z,7.09
2024-02-27T07:44:10.958Z,7.28
2024-02-27T07:46:37.538Z,7.22
2024-02-27T07:49:05.522Z,7.13
2024-02-27T07:51:34.076Z,7.18
2024-02-27T07:54:01.211Z,7.28
2024-02-27T07:56:31.407Z,7.30
2024-02-27T07:58:58.365Z,7.48
2024-02-27T08:01:27.788Z,7.27
2024-02-27T08:03:54.733Z,7.24
2024-02-27T08:06:24.182Z,7.29
2024-02-27T08:08:53.487Z,7.34
2024-02-27T08:11:20.144Z,7.39
2024-02-27T08:13:46.796Z,7.46
2024-02-27T08:16:13.505Z,7.50
2024-02-27T08:18:40.268Z,7.44
2024-02-27T08:21:06.997Z,7.71
2024-02-27T08:23:35.578Z,7.68
2024-02-27T08:26:02.951Z,7.91
2024-02-27T08:28:29.566Z,7.84
2024-02-27T08:30:56.250Z,7.97
2024-02-27T08:33:23.046Z,7.95
2024-02-27T08:35:49.819Z,8.04
2024-02-27T08:38:16.361Z,8.07
2024-02-27T08:40:45.751Z,8.24
2024-02-27T08:43:15.214Z,8.26
2024-02-27T08:45:42.438Z,8.18
2024-02-27T08:48:09.143Z,8.22
2024-02-27T08:50:35.752Z,8.17
2024-02-27T08:53:02.342Z,8.01
2024-02-27T08:55:31.109Z,8.19
2024-02-27T08:57:59.071Z,8.19
2024-02-27T09:00:26.831Z,8.35
2024-02-27T09:02:53.408Z,8.46
2024-02-27T09:05:19.946Z,8.25
2024-02-27T09:07:46.539Z,8.26
2024-02-27T09:10:13.225Z,8.31
2024-02-27T09:12:40.587Z,8.39
2024-02-27T09:15:09.608Z,8.28
2024-02-27T09:17:36.436Z,8.38
2024-02-27T09:20:03.689Z,8.50
2024-02-27T09:22:32.149Z,8.57
2024-02-27T09:24:58.780Z,8.50
2024-02-27T09:27:25.341Z,8.37
2024-02-27T09:29:52.574Z,8.48
2024-02-27T09:32:24.205Z,8.45
2024-02-27T09:34:51.875Z,8.40
2024-02-27T09:37:19.606Z,8.36
2024-02-27T09:39:54.239Z,8.43
2024-02-27T09:42:34.528Z,8.34
2024-02-27T09:45:05.495Z,8.48
2024-02-27T09:47:35.469Z,8.51
2024-02-27T09:50:02.619Z,8.72
2024-02-27T09:52:29.950Z,8.63
2024-02-27T09:54:57.903Z,8.85
2024-02-27T09:57:25.340Z,8.88
2024-02-27T09:59:52.858Z,8.74
2024-02-27T10:02:19.761Z,8.82
2024-02-27T10:04:47.825Z,8.72
2024-02-27T10:07:16.102Z,9.03
2024-02-27T10:09:45.509Z,8.86
2024-02-27T10:12:13.780Z,8.73
2024-02-27T10:14:40.952Z,8.89
2024-02-27T10:17:08.800Z,8.93
2024-02-27T10:19:36.461Z,8.80
2024-02-27T10:22:05.163Z,8.49
2024-02-27T10:24:31.935Z,8.63
2024-02-27T10:26:59.583Z,8.51
2024-02-27T10:29:27.601Z,8.55
2024-02-27T10:31:54.626Z,8.56
2024-02-27T10:34:21.650Z,8.56
2024-02-27T10:36:57.275Z,8.73
2024-02-27T10:39:25.410Z,8.59
2024-02-27T10:41:52.609Z,8.42
2024-02-27T10:44:19.493Z,8.42
2024-02-27T10:46:47.282Z,8.45
2024-02-27T10:49:14.428Z,8.51
2024-02-27T10:51:42.809Z,8.60
2024-02-27T10:54:09.577Z,8.51
2024-02-27T10:56:37.560Z,8.48
2024-02-27T10:59:05.685Z,8.43
2024-02-27T11:01:33.574Z,8.53
2024-02-27T11:04:04.356Z,8.49
2024-02-27T11:06:31.307Z,8.57
2024-02-27T11:09:04.508Z,8.56
2024-02-27T11:11:31.641Z,8.54
2024-02-27T11:14:01.902Z,8.35
2024-02-27T11:16:29.774Z,8.57
2024-02-27T11:19:00.764Z,8.57
2024-02-27T11:21:29.006Z,8.58
2024-02-27T11:23:55.675Z,8.62
2024-02-27T11:26:22.815Z,8.74
2024-02-27T11:28:50.793Z,8.97
2024-02-27T11:31:22.158Z,8.97
2024-02-27T11:33:49.808Z,9.06
2024-02-27T11:36:16.733Z,8.53
2024-02-27T11:38:44.485Z,8.48
2024-02-27T11:41:13.936Z,8.68
2024-02-27T11:43:40.660Z,8.75
2024-02-27T11:46:36.925Z,8.83
2024-02-27T11:49:04.969Z,8.92
2024-02-27T11:51:34.193Z,9.03
2024-02-27T11:54:00.918Z,9.11
2024-02-27T11:56:27.915Z,9.03
2024-02-27T11:58:54.775Z,9.10
2024-02-27T12:01:23.384Z,8.80
2024-02-27T12:03:52.246Z,8.95
2024-02-27T12:06:19.292Z,8.95
2024-02-27T12:08:47.294Z,8.78
2024-02-27T12:11:15.488Z,8.90
2024-02-27T12:13:43.556Z,9.06
2024-02-27T12:16:10.175Z,9.14
2024-02-27T12:18:36.992Z,9.09
2024-02-27T12:21:05.788Z,9.06
2024-02-27T12:23:32.750Z,9.15
2024-02-27T12:25:59.599Z,8.88
2024-02-27T12:28:26.464Z,8.93
2024-02-27T12:30:53.080Z,8.73
2024-02-27T12:33:20.064Z,9.02
2024-02-27T12:35:46.938Z,9.16
2024-02-27T12:38:15.169Z,9.29
2024-02-27T12:40:42.764Z,9.20
2024-02-27T12:43:09.634Z,9.24
2024-02-27T12:45:36.313Z,9.29
2024-02-27T12:48:04.466Z,9.01
2024-02-27T12:50:31.530Z,9.05
2024-02-27T12:53:06.879Z,9.39
2024-02-27T12:55:40.705Z,9.16
2024-02-27T12:58:07.541Z,8.78
2024-02-27T13:00:34.749Z,8.99
2024-02-27T13:03:01.598Z,8.86
2024-02-27T13:05:28.765Z,9.00
2024-02-27T13:07:56.903Z,9.17
2024-02-27T13:10:23.921Z,9.27
2024-02-27T13:13:09.861Z,9.49
2024-02-27T13:15:36.939Z,9.03
2024-02-27T13:18:04.220Z,9.36
2024-02-27T13:20:31.020Z,9.44
2024-02-27T13:23:02.911Z,9.48
2024-02-27T13:25:32.692Z,9.67
2024-02-27T13:27:59.230Z,9.51
2024-02-27T13:30:27.317Z,9.43
2024-02-27T13:32:53.950Z,9.60
2024-02-27T13:35:20.807Z,9.56
2024-02-27T13:37:48.216Z,9.48
2024-02-27T13:40:14.802Z,9.19
2024-02-27T13:42:41.429Z,9.30
2024-02-27T13:45:08.719Z,9.35
2024-02-27T13:47:36.732Z,9.49
2024-02-27T13:50:03.605Z,9.62
2024-02-27T13:52:30.268Z,9.45
2024-02-27T13:54:58.011Z,9.57
2024-02-27T13:57:26.167Z,9.97
2024-02-27T13:59:53.884Z,9.75
2024-02-27T14:02:20.500Z,9.68
2024-02-27T14:04:48.470Z,10.03
2024-02-27T14:07:15.240Z,10.25
2024-02-27T14:09:44.321Z,10.08
2024-02-27T14:12:12.186Z,10.21
2024-02-27T14:14:39.067Z,10.09
2024-02-27T14:17:06.044Z,9.80
2024-02-27T14:19:32.744Z,9.67
2024-02-27T14:22:00.755Z,10.02
2024-02-27T14:24:27.405Z,10.22
2024-02-27T14:26:54.028Z,10.36
2024-02-27T14:29:20.943Z,10.33
2024-02-27T14:31:47.513Z,10.19
2024-02-27T14:34:15.543Z,10.15
2024-02-27T14:36:42.455Z,10.30
2024-02-27T14:39:10.491Z,10.31
2024-02-27T14:41:38.215Z,10.37
2024-02-27T14:44:08.741Z,10.39
2024-02-27T14:46:35.873Z,10.28
2024-02-27T14:49:02.737Z,10.39
2024-02-27T14:51:30.065Z,10.24
2024-02-27T14:53:56.671Z,10.09
2024-02-27T14:56:24.679Z,9.90
2024-02-27T14:58:52.174Z,10.01
2024-02-27T15:01:18.830Z,10.05
2024-02-27T15:03:45.676Z,9.94
2024-02-27T15:06:12.923Z,10.21
2024-02-27T15:08:39.858Z,10.32
2024-02-27T15:11:06.557Z,10.29
2024-02-27T15:13:34.523Z,10.16
2024-02-27T15:16:01.074Z,10.26
2024-02-27T15:18:27.814Z,10.29
2024-02-27T15:20:57.293Z,9.75
2024-02-27T15:23:24.158Z,9.92
2024-02-27T15:25:50.735Z,10.04
2024-02-27T15:28:17.943Z,10.02
2024-02-27T15:30:45.953Z,10.03
2024-02-27T15:33:12.740Z,9.97
2024-02-27T15:35:42.051Z,9.81
2024-02-27T15:38:09.964Z,9.62
2024-02-27T15:40:36.536Z,9.68
2024-02-27T15:43:03.215Z,9.92
2024-02-27T15:45:29.770Z,9.81
2024-02-27T15:47:57.839Z,9.78
2024-02-27T15:50:24.585Z,9.90
2024-02-27T15:52:51.224Z,9.84
2024-02-27T15:55:18.355Z,9.80
2024-02-27T15:57:45.077Z,9.72
2024-02-27T16:00:13.008Z,9.81
2024-02-27T16:02:39.652Z,9.63
2024-02-27T16:05:10.385Z,9.77
2024-02-27T16:07:41.244Z,9.76
2024-02-27T16:10:09.821Z,9.79
2024-02-27T16:12:38.916Z,9.63
2024-02-27T16:15:07.422Z,9.71
2024-02-27T16:17:34.290Z,9.67
2024-02-27T16:20:01.125Z,9.71
2024-02-27T16:22:29.769Z,9.37
2024-02-27T16:24:56.582Z,9.23
2024-02-27T16:27:23.313Z,9.31
2024-02-27T16:29:49.948Z,9.36
2024-02-27T16:32:16.716Z,9.51
2024-02-27T16:34:43.435Z,9.28
2024-02-27T16:37:10.956Z,9.44
2024-02-27T16:39:38.880Z,9.49
2024-02-27T16:42:05.835Z,9.33
2024-02-27T16:44:32.501Z,9.22
2024-02-27T16:46:59.176Z,9.12
2024-02-27T16:49:25.918Z,8.85
2024-02-27T16:51:52.747Z,8.94
2024-02-27T16:54:19.471Z,8.98
2024-02-27T16:56:47.428Z,9.00
2024-02-27T16:59:13.998Z,9.01
2024-02-27T17:01:40.785Z,8.93
2024-02-27T17:04:07.625Z,8.83
2024-02-27T17:06:34.559Z,8.83
2024-02-27T17:09:01.134Z,8.69
2024-02-27T17:11:27.722Z,8.68
2024-02-27T17:13:55.657Z,8.61
2024-02-27T17:16:22.242Z,8.36
2024-02-27T17:18:49.039Z,8.43
2024-02-27T17:21:15.850Z,8.44
2024-02-27T17:23:42.476Z,8.41
2024-02-27T17:26:11.072Z,8.39
2024-02-27T17:28:37.681Z,8.20
2024-02-27T17:31:05.965Z,8.22
2024-02-27T17:33:32.915Z,8.13
2024-02-27T17:36:00.600Z,7.93
2024-02-27T17:38:27.645Z,7.81
2024-02-27T17:40:54.197Z,7.66
2024-02-27T17:43:20.862Z,7.63
2024-02-27T17:45:49.795Z,7.60
2024-02-27T17:48:18.085Z,7.59
2024-02-27T17:50:44.750Z,7.45
2024-02-27T17:53:11.367Z,7.48
2024-02-27T17:55:38.112Z,7.50
2024-02-27T17:58:06.814Z,7.30
2024-02-27T18:00:33.814Z,7.32
2024-02-27T18:03:00.797Z,7.43
2024-02-27T18:05:28.933Z,7.42
2024-02-27T18:07:55.606Z,7.30
2024-02-27T18:10:22.156Z,7.30
2024-02-27T18:12:48.869Z,7.38
2024-02-27T18:15:20.024Z,7.21
2024-02-27T18:17:49.448Z,7.09
2024-02-27T18:20:16.809Z,6.93
2024-02-27T18:22:45.283Z,7.03
2024-02-27T18:25:13.154Z,6.98
2024-02-27T18:27:40.465Z,6.80
2024-02-27T18:30:09.208Z,7.04
2024-02-27T18:32:38.192Z,6.96
2024-02-27T18:35:05.650Z,6.79
2024-02-27T18:37:32.313Z,6.70
2024-02-27T18:40:01.012Z,6.68
2024-02-27T18:42:27.716Z,6.71
2024-02-27T18:44:54.370Z,6.67
2024-02-27T18:47:21.245Z,6.61
2024-02-27T18:49:49.465Z,6.60
2024-02-27T18:52:16.950Z,6.64
2024-02-27T18:54:43.903Z,6.29
2024-02-27T18:57:12.008Z,6.01
2024-02-27T18:59:38.690Z,6.13
2024-02-27T19:02:05.585Z,6.13
2024-02-27T19:04:32.226Z,6.14
2024-02-27T19:06:59.365Z,6.20
2024-02-27T19:09:26.539Z,6.32
2024-02-27T19:11:56.380Z,6.44
2024-02-27T19:14:24.815Z,6.45
2024-02-27T19:16:51.442Z,6.42
2024-02-27T19:19:18.484Z,6.15
2024-02-27T19:21:45.183Z,6.16
2024-02-27T19:24:11.927Z,6.19
2024-02-27T19:26:38.549Z,6.29
2024-02-27T19:29:05.285Z,6.23
2024-02-27T19:31:33.238Z,6.18
2024-02-27T19:34:00.020Z,6.13
2024-02-27T19:36:26.750Z,5.90
2024-02-27T19:38:53.382Z,5.82
2024-02-27T19:41:19.964Z,5.60
2024-02-27T19:43:46.678Z,5.71
2024-02-27T19:46:14.996Z,5.71
2024-02-27T19:48:43.067Z,5.78
2024-02-27T19:51:12.958Z,5.83
2024-02-27T19:53:39.645Z,5.67
2024-02-27T19:56:06.454Z,5.73
2024-02-27T19:58:33.123Z,5.62
2024-02-27T20:00:59.819Z,5.68
2024-02-27T20:03:26.624Z,5.66
2024-02-27T20:05:54.640Z,5.54
2024-02-27T20:08:21.793Z,5.38
2024-02-27T20:10:48.437Z,5.32
2024-02-27T20:13:20.128Z,5.21
2024-02-27T20:15:47.203Z,5.26
2024-02-27T20:18:13.794Z,5.37
2024-02-27T20:20:41.786Z,5.30
2024-02-27T20:23:10.849Z,5.35
2024-02-27T20:25:37.518Z,5.50
2024-02-27T20:28:04.650Z,5.56
2024-02-27T20:30:31.405Z,5.58
2024-02-27T20:32:58.251Z,5.31
2024-02-27T20:35:24.863Z,5.32
2024-02-27T20:37:52.496Z,5.10
2024-02-27T20:40:21.543Z,5.04
2024-02-27T20:42:48.243Z,5.13
2024-02-27T20:45:15.008Z,5.19
2024-02-27T20:47:42.081Z,5.26
2024-02-27T20:50:11.728Z,5.22
2024-02-27T20:52:38.690Z,5.14
2024-02-27T20:55:06.210Z,5.15
2024-02-27T20:57:34.238Z,5.13
2024-02-27T21:00:01.036Z,5.22
2024-02-27T21:02:29.836Z,5.20
2024-02-27T21:04:57.688Z,4.95
2024-02-27T21:07:25.203Z,4.95
2024-02-27T21:09:51.854Z,5.09
2024-02-27T21:12:18.565Z,5.06
2024-02-27T21:14:46.517Z,5.11
2024-02-27T21:17:13.183Z,5.12
2024-02-27T21:19:39.877Z,5.12
2024-02-27T21:22:06.521Z,5.14
2024-02-27T21:24:33.170Z,5.07
2024-02-27T21:26:59.778Z,5.18
2024-02-27T21:29:26.339Z,5.27
2024-02-27T21:31:54.284Z,5.23
2024-02-27T21:34:20.955Z,5.26
2024-02-27T21:36:47.670Z,5.09
2024-02-27T21:39:14.591Z,4.86
2024-02-27T21:41:41.711Z,4.69
2024-02-27T21:44:08.465Z,4.60
2024-02-27T21:46:35.701Z,4.66
2024-02-27T21:49:03.796Z,4.55
2024-02-27T21:51:30.490Z,4.82
2024-02-27T21:53:57.118Z,4.86
2024-02-27T21:56:23.774Z,4.77
2024-02-27T21:58:50.352Z,4.73
2024-02-27T22:01:17.049Z,4.82
2024-02-27T22:03:45.211Z,4.89
2024-02-27T22:06:13.219Z,4.96
2024-02-27T22:08:40.876Z,4.97
2024-02-27T22:11:08.493Z,4.95
2024-02-27T22:13:35.419Z,4.86
2024-02-27T22:16:02.143Z,4.71
2024-02-27T22:18:29.289Z,4.72
2024-02-27T22:20:55.888Z,4.76
2024-02-27T22:23:23.874Z,4.68
2024-02-27T22:25:52.704Z,4.50
2024-02-27T22:28:19.519Z,4.55
2024-02-27T22:30:46.269Z,4.58
2024-02-27T22:33:13.426Z,4.64
2024-02-27T22:35:40.774Z,4.62
2024-02-27T22:38:09.401Z,4.55
2024-02-27T22:40:38.552Z,4.57
2024-02-27T22:43:05.128Z,4.58
2024-02-27T22:45:31.758Z,4.46
2024-02-27T22:47:58.419Z,4.44
2024-02-27T22:50:25.173Z,4.32
2024-02-27T22:52:51.808Z,4.17
2024-02-27T22:55:18.380Z,4.05
2024-02-27T22:57:46.441Z,4.36
2024-02-27T23:00:16.443Z,4.35
2024-02-27T23:02:43.029Z,4.37
2024-02-27T23:05:10.356Z,4.38
2024-02-27T23:07:37.300Z,4.40
2024-02-27T23:10:07.763Z,4.32
2024-02-27T23:12:34.464Z,4.30
2024-02-27T23:15:02.495Z,4.23
2024-02-27T23:17:29.056Z,4.31
2024-02-27T23:19:55.672Z,4.31
2024-02-27T23:22:22.209Z,4.20
2024-02-27T23:24:48.846Z,4.16
2024-02-27T23:27:15.595Z,4.17
2024-02-27T23:29:42.167Z,4.09
2024-02-27T23:32:10.156Z,4.07
2024-02-27T23:34:36.679Z,4.16
2024-02-27T23:37:03.748Z,4.24
2024-02-27T23:39:30.394Z,4.16
2024-02-27T23:41:56.953Z,4.01
2024-02-27T23:44:23.621Z,4.00
2024-02-27T23:46:50.210Z,4.03
2024-02-27T23:49:18.095Z,3.96
2024-02-27T23:51:44.705Z,3.90
2024-02-27T23:54:11.372Z,3.96
2024-02-27T23:56:37.935Z,3.81
2024-02-27T23:59:04.557Z,3.94
